sensor_id;sensor_type;location;lat;lon;timestamp;pressure;altitude;pressure_sealevel;temperature;humidity
47522;BME280;32291;52.010;4.446;2023-04-30T00:00:45;79827.25;;;-144.67;100.00
47522;BME280;32291;52.010;4.446;2023-04-30T00:01:46;79829.38;;;-144.67;100.00
47522;BME280;32291;52.010;4.446;2023-04-30T00:02:48;79820.81;;;-144.67;100.00
47522;BME280;32291;52.010;4.446;2023-04-30T00:03:50;79829.38;;;-144.67;100.00
47522;BME280;32291;52.010;4.446;2023-04-30T00:04:52;79820.81;;;-144.67;100.00
47522;BME280;32291;52.010;4.446;2023-04-30T00:05:54;79818.66;;;-144.67;100.00
47522;BME280;32291;52.010;4.446;2023-04-30T00:06:56;79812.25;;;-144.67;100.00
47522;BME280;32291;52.010;4.446;2023-04-30T00:07:57;79812.25;;;-144.67;100.00
47522;BME280;32291;52.010;4.446;2023-04-30T00:08:59;79805.81;;;-144.67;100.00
47522;BME280;32291;52.010;4.446;2023-04-30T00:10:01;79799.41;;;-144.67;100.00
47522;BME280;32291;52.010;4.446;2023-04-30T00:11:03;79797.25;;;-144.67;100.00
47522;BME280;32291;52.010;4.446;2023-04-30T00:12:05;79790.81;;;-144.67;100.00
47522;BME280;32291;52.010;4.446;2023-04-30T00:13:07;79782.25;;;-144.67;100.00
47522;BME280;32291;52.010;4.446;2023-04-30T00:14:10;79773.69;;;-144.67;100.00
47522;BME280;32291;52.010;4.446;2023-04-30T00:15:12;79769.41;;;-144.67;100.00
47522;BME280;32291;52.010;4.446;2023-04-30T00:16:13;79760.84;;;-144.67;100.00
47522;BME280;32291;52.010;4.446;2023-04-30T00:17:15;79758.69;;;-144.67;100.00
47522;BME280;32291;52.010;4.446;2023-04-30T00:18:17;79756.56;;;-144.67;100.00
47522;BME280;32291;52.010;4.446;2023-04-30T00:19:19;79756.56;;;-144.67;100.00
47522;BME280;32291;52.010;4.446;2023-04-30T00:20:20;79760.84;;;-144.67;100.00
47522;BME280;32291;52.010;4.446;2023-04-30T00:21:22;79771.56;;;-144.67;100.00
47522;BME280;32291;52.010;4.446;2023-04-30T00:22:23;79775.84;;;-144.67;100.00
47522;BME280;32291;52.010;4.446;2023-04-30T00:23:26;79773.69;;;-144.67;100.00
47522;BME280;32291;52.010;4.446;2023-04-30T00:24:27;79777.97;;;-144.67;100.00
47522;BME280;32291;52.010;4.446;2023-04-30T00:25:29;79782.25;;;-144.67;100.00
47522;BME280;32291;52.010;4.446;2023-04-30T00:26:30;79782.25;;;-144.67;100.00
47522;BME280;32291;52.010;4.446;2023-04-30T00:27:32;79790.81;;;-144.67;100.00
47522;BME280;32291;52.010;4.446;2023-04-30T00:28:34;79790.81;;;-144.67;100.00
47522;BME280;32291;52.010;4.446;2023-04-30T00:29:36;79795.13;;;-144.67;100.00
47522;BME280;32291;52.010;4.446;2023-04-30T00:30:38;79790.81;;;-144.67;100.00
47522;BME280;32291;52.010;4.446;2023-04-30T00:31:39;79797.25;;;-144.67;100.00
47522;BME280;32291;52.010;4.446;2023-04-30T00:32:42;79795.13;;;-144.67;100.00
47522;BME280;32291;52.010;4.446;2023-04-30T00:33:46;79803.69;;;-144.67;100.00
47522;BME280;32291;52.010;4.446;2023-04-30T00:34:47;79803.69;;;-144.67;100.00
47522;BME280;32291;52.010;4.446;2023-04-30T00:35:49;79801.53;;;-144.67;100.00
47522;BME280;32291;52.010;4.446;2023-04-30T00:36:51;79807.97;;;-144.67;100.00
47522;BME280;32291;52.010;4.446;2023-04-30T00:37:53;79803.69;;;-144.67;100.00
47522;BME280;32291;52.010;4.446;2023-04-30T00:38:54;79807.97;;;-144.67;100.00
47522;BME280;32291;52.010;4.446;2023-04-30T00:39:56;79799.41;;;-144.67;100.00
47522;BME280;32291;52.010;4.446;2023-04-30T00:40:58;79799.41;;;-144.67;100.00
47522;BME280;32291;52.010;4.446;2023-04-30T00:42:00;79805.81;;;-144.67;100.00
47522;BME280;32291;52.010;4.446;2023-04-30T00:43:03;79812.25;;;-144.67;100.00
47522;BME280;32291;52.010;4.446;2023-04-30T00:44:05;79807.97;;;-144.67;100.00
47522;BME280;32291;52.010;4.446;2023-04-30T00:45:07;79810.09;;;-144.67;100.00
47522;BME280;32291;52.010;4.446;2023-04-30T00:46:09;79803.69;;;-144.67;100.00
47522;BME280;32291;52.010;4.446;2023-04-30T00:47:11;79807.97;;;-144.67;100.00
47522;BME280;32291;52.010;4.446;2023-04-30T00:48:12;79816.53;;;-144.67;100.00
47522;BME280;32291;52.010;4.446;2023-04-30T00:49:14;79818.66;;;-144.67;100.00
47522;BME280;32291;52.010;4.446;2023-04-30T00:50:16;79820.81;;;-144.67;100.00
47522;BME280;32291;52.010;4.446;2023-04-30T00:51:18;79827.25;;;-144.67;100.00
47522;BME280;32291;52.010;4.446;2023-04-30T00:52:20;79820.81;;;-144.67;100.00
47522;BME280;32291;52.010;4.446;2023-04-30T00:53:22;79816.53;;;-144.67;100.00
47522;BME280;32291;52.010;4.446;2023-04-30T00:54:24;79820.81;;;-144.67;100.00
47522;BME280;32291;52.010;4.446;2023-04-30T00:55:26;79827.25;;;-144.67;100.00
47522;BME280;32291;52.010;4.446;2023-04-30T00:56:30;79820.81;;;-144.67;100.00
47522;BME280;32291;52.010;4.446;2023-04-30T00:57:34;79829.38;;;-144.67;100.00
47522;BME280;32291;52.010;4.446;2023-04-30T00:58:36;79829.38;;;-144.67;100.00
47522;BME280;32291;52.010;4.446;2023-04-30T00:59:40;79833.66;;;-144.67;100.00
47522;BME280;32291;52.010;4.446;2023-04-30T01:00:43;79825.09;;;-144.67;100.00
47522;BME280;32291;52.010;4.446;2023-04-30T01:01:47;79835.81;;;-144.67;100.00
47522;BME280;32291;52.010;4.446;2023-04-30T01:02:48;79835.81;;;-144.67;100.00
47522;BME280;32291;52.010;4.446;2023-04-30T01:03:51;79835.81;;;-144.67;100.00
47522;BME280;32291;52.010;4.446;2023-04-30T01:04:53;79827.25;;;-144.67;100.00
47522;BME280;32291;52.010;4.446;2023-04-30T01:05:55;79835.81;;;-144.67;100.00
47522;BME280;32291;52.010;4.446;2023-04-30T01:06:58;79835.81;;;-144.67;100.00
47522;BME280;32291;52.010;4.446;2023-04-30T01:08:03;79837.94;;;-144.67;100.00
47522;BME280;32291;52.010;4.446;2023-04-30T01:09:05;79833.66;;;-144.67;100.00
47522;BME280;32291;52.010;4.446;2023-04-30T01:10:08;79840.09;;;-144.67;100.00
47522;BME280;32291;52.010;4.446;2023-04-30T01:12:06;79840.09;;;-144.67;100.00
47522;BME280;32291;52.010;4.446;2023-04-30T01:13:16;79846.53;;;-144.67;100.00
47522;BME280;32291;52.010;4.446;2023-04-30T01:14:35;79844.38;;;-144.67;100.00
47522;BME280;32291;52.010;4.446;2023-04-30T01:15:54;79844.38;;;-144.67;100.00
47522;BME280;32291;52.010;4.446;2023-04-30T01:17:16;79842.22;;;-144.67;100.00
47522;BME280;32291;52.010;4.446;2023-04-30T01:18:28;79842.22;;;-144.67;100.00
47522;BME280;32291;52.010;4.446;2023-04-30T01:19:42;79844.38;;;-144.67;100.00
47522;BME280;32291;52.010;4.446;2023-04-30T01:20:53;79844.38;;;-144.67;100.00
47522;BME280;32291;52.010;4.446;2023-04-30T01:21:58;79859.38;;;-144.67;100.00
47522;BME280;32291;52.010;4.446;2023-04-30T01:23:10;79850.81;;;-144.67;100.00
47522;BME280;32291;52.010;4.446;2023-04-30T01:24:59;79852.94;;;-144.67;100.00
47522;BME280;32291;52.010;4.446;2023-04-30T01:28:17;79863.66;;;-144.67;100.00
47522;BME280;32291;52.010;4.446;2023-04-30T01:29:23;79863.66;;;-144.67;100.00
47522;BME280;32291;52.010;4.446;2023-04-30T01:30:26;79861.50;;;-144.67;100.00
47522;BME280;32291;52.010;4.446;2023-04-30T01:31:29;79867.94;;;-144.67;100.00
47522;BME280;32291;52.010;4.446;2023-04-30T01:32:31;79863.66;;;-144.67;100.00
47522;BME280;32291;52.010;4.446;2023-04-30T01:33:33;79863.66;;;-144.67;100.00
47522;BME280;32291;52.010;4.446;2023-04-30T01:34:35;79872.22;;;-144.67;100.00
47522;BME280;32291;52.010;4.446;2023-04-30T01:37:42;79878.66;;;-144.67;100.00
47522;BME280;32291;52.010;4.446;2023-04-30T01:45:29;79885.06;;;-144.67;100.00
47522;BME280;32291;52.010;4.446;2023-04-30T01:46:33;79878.66;;;-144.67;100.00
47522;BME280;32291;52.010;4.446;2023-04-30T01:47:51;79876.50;;;-144.67;100.00
47522;BME280;32291;52.010;4.446;2023-04-30T01:50:35;79880.78;;;-144.67;100.00
47522;BME280;32291;52.010;4.446;2023-04-30T01:51:43;79885.06;;;-144.67;100.00
47522;BME280;32291;52.010;4.446;2023-04-30T01:52:53;79889.34;;;-144.67;100.00
47522;BME280;32291;52.010;4.446;2023-04-30T01:54:17;79880.78;;;-144.67;100.00
47522;BME280;32291;52.010;4.446;2023-04-30T01:55:36;79880.78;;;-144.67;100.00
47522;BME280;32291;52.010;4.446;2023-04-30T01:57:11;79885.06;;;-144.67;100.00
47522;BME280;32291;52.010;4.446;2023-04-30T01:58:15;79885.06;;;-144.67;100.00
47522;BME280;32291;52.010;4.446;2023-04-30T01:59:17;79878.66;;;-144.67;100.00
47522;BME280;32291;52.010;4.446;2023-04-30T02:00:19;79885.06;;;-144.67;100.00
47522;BME280;32291;52.010;4.446;2023-04-30T02:01:32;79882.94;;;-144.67;100.00
47522;BME280;32291;52.010;4.446;2023-04-30T02:02:34;79887.22;;;-144.67;100.00
47522;BME280;32291;52.010;4.446;2023-04-30T02:03:36;79887.22;;;-144.67;100.00
47522;BME280;32291;52.010;4.446;2023-04-30T02:04:37;79895.78;;;-144.67;100.00
47522;BME280;32291;52.010;4.446;2023-04-30T02:05:39;79891.50;;;-144.67;100.00
47522;BME280;32291;52.010;4.446;2023-04-30T02:06:40;79893.66;;;-144.67;100.00
47522;BME280;32291;52.010;4.446;2023-04-30T02:07:45;79893.66;;;-144.67;100.00
47522;BME280;32291;52.010;4.446;2023-04-30T02:08:48;79893.66;;;-144.67;100.00
47522;BME280;32291;52.010;4.446;2023-04-30T02:09:49;79902.22;;;-144.67;100.00
47522;BME280;32291;52.010;4.446;2023-04-30T02:10:51;79900.06;;;-144.67;100.00
47522;BME280;32291;52.010;4.446;2023-04-30T02:11:52;79902.22;;;-144.67;100.00
47522;BME280;32291;52.010;4.446;2023-04-30T02:12:55;79900.06;;;-144.67;100.00
47522;BME280;32291;52.010;4.446;2023-04-30T02:13:56;79908.63;;;-144.67;100.00
47522;BME280;32291;52.010;4.446;2023-04-30T02:14:58;79910.78;;;-144.67;100.00
47522;BME280;32291;52.010;4.446;2023-04-30T02:15:59;79912.91;;;-144.67;100.00
47522;BME280;32291;52.010;4.446;2023-04-30T02:17:01;79910.78;;;-144.67;100.00
47522;BME280;32291;52.010;4.446;2023-04-30T02:18:03;79902.22;;;-144.67;100.00
47522;BME280;32291;52.010;4.446;2023-04-30T02:19:04;79906.50;;;-144.67;100.00
47522;BME280;32291;52.010;4.446;2023-04-30T02:20:08;79904.34;;;-144.67;100.00
47522;BME280;32291;52.010;4.446;2023-04-30T02:21:09;79897.94;;;-144.67;100.00
47522;BME280;32291;52.010;4.446;2023-04-30T02:22:11;79893.66;;;-144.67;100.00
47522;BME280;32291;52.010;4.446;2023-04-30T02:23:14;79893.66;;;-144.67;100.00
47522;BME280;32291;52.010;4.446;2023-04-30T02:24:16;79897.94;;;-144.67;100.00
47522;BME280;32291;52.010;4.446;2023-04-30T02:25:18;79893.66;;;-144.67;100.00
47522;BME280;32291;52.010;4.446;2023-04-30T02:26:19;79887.22;;;-144.67;100.00
47522;BME280;32291;52.010;4.446;2023-04-30T02:27:23;79887.22;;;-144.67;100.00
47522;BME280;32291;52.010;4.446;2023-04-30T02:28:26;79885.06;;;-144.67;100.00
47522;BME280;32291;52.010;4.446;2023-04-30T02:29:27;79893.66;;;-144.67;100.00
47522;BME280;32291;52.010;4.446;2023-04-30T02:30:29;79885.06;;;-144.67;100.00
47522;BME280;32291;52.010;4.446;2023-04-30T02:31:31;79891.50;;;-144.67;100.00
47522;BME280;32291;52.010;4.446;2023-04-30T02:32:33;79889.34;;;-144.67;100.00
47522;BME280;32291;52.010;4.446;2023-04-30T02:33:34;79887.22;;;-144.67;100.00
47522;BME280;32291;52.010;4.446;2023-04-30T02:34:36;79889.34;;;-144.67;100.00
47522;BME280;32291;52.010;4.446;2023-04-30T02:35:40;79893.66;;;-144.67;100.00
47522;BME280;32291;52.010;4.446;2023-04-30T02:36:42;79887.22;;;-144.67;100.00
47522;BME280;32291;52.010;4.446;2023-04-30T02:37:43;79889.34;;;-144.67;100.00
47522;BME280;32291;52.010;4.446;2023-04-30T02:38:45;79885.06;;;-144.67;100.00
47522;BME280;32291;52.010;4.446;2023-04-30T02:39:47;79889.34;;;-144.67;100.00
47522;BME280;32291;52.010;4.446;2023-04-30T02:40:48;79889.34;;;-144.67;100.00
47522;BME280;32291;52.010;4.446;2023-04-30T02:41:50;79893.66;;;-144.67;100.00
47522;BME280;32291;52.010;4.446;2023-04-30T02:42:52;79889.34;;;-144.67;100.00
47522;BME280;32291;52.010;4.446;2023-04-30T02:43:55;79895.78;;;-144.67;100.00
47522;BME280;32291;52.010;4.446;2023-04-30T02:44:56;79889.34;;;-144.67;100.00
47522;BME280;32291;52.010;4.446;2023-04-30T02:45:58;79897.94;;;-144.67;100.00
47522;BME280;32291;52.010;4.446;2023-04-30T02:47:00;79893.66;;;-144.67;100.00
47522;BME280;32291;52.010;4.446;2023-04-30T02:48:03;79889.34;;;-144.67;100.00
47522;BME280;32291;52.010;4.446;2023-04-30T02:49:05;79893.66;;;-144.67;100.00
47522;BME280;32291;52.010;4.446;2023-04-30T02:50:07;79889.34;;;-144.67;100.00
47522;BME280;32291;52.010;4.446;2023-04-30T02:51:08;79889.34;;;-144.67;100.00
47522;BME280;32291;52.010;4.446;2023-04-30T02:52:10;79891.50;;;-144.67;100.00
47522;BME280;32291;52.010;4.446;2023-04-30T02:53:12;79885.06;;;-144.67;100.00
47522;BME280;32291;52.010;4.446;2023-04-30T02:54:13;79891.50;;;-144.67;100.00
47522;BME280;32291;52.010;4.446;2023-04-30T02:55:15;79885.06;;;-144.67;100.00
47522;BME280;32291;52.010;4.446;2023-04-30T02:56:17;79889.34;;;-144.67;100.00
47522;BME280;32291;52.010;4.446;2023-04-30T02:57:19;79893.66;;;-144.67;100.00
47522;BME280;32291;52.010;4.446;2023-04-30T02:58:23;79885.06;;;-144.67;100.00
47522;BME280;32291;52.010;4.446;2023-04-30T02:59:25;79891.50;;;-144.67;100.00
47522;BME280;32291;52.010;4.446;2023-04-30T03:00:27;79885.06;;;-144.67;100.00
47522;BME280;32291;52.010;4.446;2023-04-30T03:01:29;79893.66;;;-144.67;100.00
47522;BME280;32291;52.010;4.446;2023-04-30T03:02:31;79887.22;;;-144.67;100.00
47522;BME280;32291;52.010;4.446;2023-04-30T03:03:33;79887.22;;;-144.67;100.00
47522;BME280;32291;52.010;4.446;2023-04-30T03:04:35;79885.06;;;-144.67;100.00
47522;BME280;32291;52.010;4.446;2023-04-30T03:05:36;79891.50;;;-144.67;100.00
47522;BME280;32291;52.010;4.446;2023-04-30T03:06:38;79891.50;;;-144.67;100.00
47522;BME280;32291;52.010;4.446;2023-04-30T03:07:41;79893.66;;;-144.67;100.00
47522;BME280;32291;52.010;4.446;2023-04-30T03:08:42;79895.78;;;-144.67;100.00
47522;BME280;32291;52.010;4.446;2023-04-30T03:09:45;79887.22;;;-144.67;100.00
47522;BME280;32291;52.010;4.446;2023-04-30T03:10:47;79897.94;;;-144.67;100.00
47522;BME280;32291;52.010;4.446;2023-04-30T03:11:48;79893.66;;;-144.67;100.00
47522;BME280;32291;52.010;4.446;2023-04-30T03:12:50;79897.94;;;-144.67;100.00
47522;BME280;32291;52.010;4.446;2023-04-30T03:13:52;79897.94;;;-144.67;100.00
47522;BME280;32291;52.010;4.446;2023-04-30T03:14:54;79906.50;;;-144.67;100.00
47522;BME280;32291;52.010;4.446;2023-04-30T03:16:01;79902.22;;;-144.67;100.00
47522;BME280;32291;52.010;4.446;2023-04-30T03:17:05;79908.63;;;-144.67;100.00
47522;BME280;32291;52.010;4.446;2023-04-30T03:18:07;79906.50;;;-144.67;100.00
47522;BME280;32291;52.010;4.446;2023-04-30T03:19:08;79906.50;;;-144.67;100.00
47522;BME280;32291;52.010;4.446;2023-04-30T03:20:10;79895.78;;;-144.67;100.00
47522;BME280;32291;52.010;4.446;2023-04-30T03:21:12;79906.50;;;-144.67;100.00
47522;BME280;32291;52.010;4.446;2023-04-30T03:22:14;79906.50;;;-144.67;100.00
47522;BME280;32291;52.010;4.446;2023-04-30T03:23:16;79902.22;;;-144.67;100.00
47522;BME280;32291;52.010;4.446;2023-04-30T03:24:18;79910.78;;;-144.67;100.00
47522;BME280;32291;52.010;4.446;2023-04-30T03:25:19;79912.91;;;-144.67;100.00
47522;BME280;32291;52.010;4.446;2023-04-30T03:26:23;79915.06;;;-144.67;100.00
47522;BME280;32291;52.010;4.446;2023-04-30T03:27:25;79908.63;;;-144.67;100.00
47522;BME280;32291;52.010;4.446;2023-04-30T03:28:27;79915.06;;;-144.67;100.00
47522;BME280;32291;52.010;4.446;2023-04-30T03:29:29;79919.34;;;-144.67;100.00
47522;BME280;32291;52.010;4.446;2023-04-30T03:30:31;79915.06;;;-144.67;100.00
47522;BME280;32291;52.010;4.446;2023-04-30T03:31:32;79917.19;;;-144.67;100.00
47522;BME280;32291;52.010;4.446;2023-04-30T03:32:34;79917.19;;;-144.67;100.00
47522;BME280;32291;52.010;4.446;2023-04-30T03:33:35;79919.34;;;-144.67;100.00
47522;BME280;32291;52.010;4.446;2023-04-30T03:34:37;79923.63;;;-144.67;100.00
47522;BME280;32291;52.010;4.446;2023-04-30T03:35:39;79921.50;;;-144.67;100.00
47522;BME280;32291;52.010;4.446;2023-04-30T03:36:41;79923.63;;;-144.67;100.00
47522;BME280;32291;52.010;4.446;2023-04-30T03:37:44;79923.63;;;-144.67;100.00
47522;BME280;32291;52.010;4.446;2023-04-30T03:38:46;79917.19;;;-144.67;100.00
47522;BME280;32291;52.010;4.446;2023-04-30T03:39:47;79923.63;;;-144.67;100.00
47522;BME280;32291;52.010;4.446;2023-04-30T03:40:49;79919.34;;;-144.67;100.00
47522;BME280;32291;52.010;4.446;2023-04-30T03:41:50;79919.34;;;-144.67;100.00
47522;BME280;32291;52.010;4.446;2023-04-30T03:42:52;79919.34;;;-144.67;100.00
47522;BME280;32291;52.010;4.446;2023-04-30T03:43:54;79925.78;;;-144.67;100.00
47522;BME280;32291;52.010;4.446;2023-04-30T03:44:56;79927.91;;;-144.67;100.00
47522;BME280;32291;52.010;4.446;2023-04-30T03:45:58;79923.63;;;-144.67;100.00
47522;BME280;32291;52.010;4.446;2023-04-30T03:46:59;79923.63;;;-144.67;100.00
47522;BME280;32291;52.010;4.446;2023-04-30T03:48:01;79921.50;;;-144.67;100.00
47522;BME280;32291;52.010;4.446;2023-04-30T03:49:03;79919.34;;;-144.67;100.00
47522;BME280;32291;52.010;4.446;2023-04-30T03:50:06;79921.50;;;-144.67;100.00
47522;BME280;32291;52.010;4.446;2023-04-30T03:51:08;79923.63;;;-144.67;100.00
47522;BME280;32291;52.010;4.446;2023-04-30T03:52:10;79927.91;;;-144.67;100.00
47522;BME280;32291;52.010;4.446;2023-04-30T03:53:12;79932.19;;;-144.67;100.00
47522;BME280;32291;52.010;4.446;2023-04-30T03:54:14;79938.63;;;-144.67;100.00
47522;BME280;32291;52.010;4.446;2023-04-30T03:55:15;79936.47;;;-144.67;100.00
47522;BME280;32291;52.010;4.446;2023-04-30T03:56:17;79938.63;;;-144.67;100.00
47522;BME280;32291;52.010;4.446;2023-04-30T03:57:19;79936.47;;;-144.67;100.00
47522;BME280;32291;52.010;4.446;2023-04-30T03:58:21;79934.34;;;-144.67;100.00
47522;BME280;32291;52.010;4.446;2023-04-30T03:59:23;79934.34;;;-144.67;100.00
47522;BME280;32291;52.010;4.446;2023-04-30T04:00:25;79934.34;;;-144.67;100.00
47522;BME280;32291;52.010;4.446;2023-04-30T04:01:28;79930.06;;;-144.67;100.00
47522;BME280;32291;52.010;4.446;2023-04-30T04:02:31;79925.78;;;-144.67;100.00
47522;BME280;32291;52.010;4.446;2023-04-30T04:03:34;79921.50;;;-144.67;100.00
47522;BME280;32291;52.010;4.446;2023-04-30T04:04:36;79919.34;;;-144.67;100.00
47522;BME280;32291;52.010;4.446;2023-04-30T04:05:38;79906.50;;;-144.67;100.00
47522;BME280;32291;52.010;4.446;2023-04-30T04:06:39;79904.34;;;-144.67;100.00
47522;BME280;32291;52.010;4.446;2023-04-30T04:07:41;79906.50;;;-144.67;100.00
47522;BME280;32291;52.010;4.446;2023-04-30T04:08:43;79900.06;;;-144.67;100.00
47522;BME280;32291;52.010;4.446;2023-04-30T04:09:44;79906.50;;;-144.67;100.00
47522;BME280;32291;52.010;4.446;2023-04-30T04:10:46;79902.22;;;-144.67;100.00
47522;BME280;32291;52.010;4.446;2023-04-30T04:11:48;79902.22;;;-144.67;100.00
47522;BME280;32291;52.010;4.446;2023-04-30T04:12:50;79900.06;;;-144.67;100.00
47522;BME280;32291;52.010;4.446;2023-04-30T04:13:51;79904.34;;;-144.67;100.00
47522;BME280;32291;52.010;4.446;2023-04-30T04:14:53;79900.06;;;-144.67;100.00
47522;BME280;32291;52.010;4.446;2023-04-30T04:15:54;79902.22;;;-144.67;100.00
47522;BME280;32291;52.010;4.446;2023-04-30T04:16:56;79902.22;;;-144.67;100.00
47522;BME280;32291;52.010;4.446;2023-04-30T04:18:01;79910.78;;;-144.67;100.00
47522;BME280;32291;52.010;4.446;2023-04-30T04:19:03;79919.34;;;-144.67;100.00
47522;BME280;32291;52.010;4.446;2023-04-30T04:20:06;79921.50;;;-144.67;100.00
47522;BME280;32291;52.010;4.446;2023-04-30T04:21:07;79927.91;;;-144.67;100.00
47522;BME280;32291;52.010;4.446;2023-04-30T04:22:09;79927.91;;;-144.67;100.00
47522;BME280;32291;52.010;4.446;2023-04-30T04:23:11;79932.19;;;-144.67;100.00
47522;BME280;32291;52.010;4.446;2023-04-30T04:24:13;79932.19;;;-144.67;100.00
47522;BME280;32291;52.010;4.446;2023-04-30T04:25:15;79932.19;;;-144.67;100.00
47522;BME280;32291;52.010;4.446;2023-04-30T04:26:18;79936.47;;;-144.67;100.00
47522;BME280;32291;52.010;4.446;2023-04-30T04:27:22;79932.19;;;-144.67;100.00
47522;BME280;32291;52.010;4.446;2023-04-30T04:28:24;79925.78;;;-144.67;100.00
47522;BME280;32291;52.010;4.446;2023-04-30T04:29:26;79923.63;;;-144.67;100.00
47522;BME280;32291;52.010;4.446;2023-04-30T04:30:28;79919.34;;;-144.67;100.00
47522;BME280;32291;52.010;4.446;2023-04-30T04:31:30;79908.63;;;-144.67;100.00
47522;BME280;32291;52.010;4.446;2023-04-30T04:32:32;79906.50;;;-144.67;100.00
47522;BME280;32291;52.010;4.446;2023-04-30T04:33:43;79897.94;;;-144.67;100.00
47522;BME280;32291;52.010;4.446;2023-04-30T04:34:44;79902.22;;;-144.67;100.00
47522;BME280;32291;52.010;4.446;2023-04-30T04:35:46;79900.06;;;-144.67;100.00
47522;BME280;32291;52.010;4.446;2023-04-30T04:36:47;79902.22;;;-144.67;100.00
47522;BME280;32291;52.010;4.446;2023-04-30T04:37:49;79904.34;;;-144.67;100.00
47522;BME280;32291;52.010;4.446;2023-04-30T04:38:51;79897.94;;;-144.67;100.00
47522;BME280;32291;52.010;4.446;2023-04-30T04:39:53;79906.50;;;-144.67;100.00
47522;BME280;32291;52.010;4.446;2023-04-30T04:40:54;79904.34;;;-144.67;100.00
47522;BME280;32291;52.010;4.446;2023-04-30T04:41:56;79906.50;;;-144.67;100.00
47522;BME280;32291;52.010;4.446;2023-04-30T04:42:58;79908.63;;;-144.67;100.00
47522;BME280;32291;52.010;4.446;2023-04-30T04:44:00;79906.50;;;-144.67;100.00
47522;BME280;32291;52.010;4.446;2023-04-30T04:45:07;79906.50;;;-144.67;100.00
47522;BME280;32291;52.010;4.446;2023-04-30T04:46:08;79906.50;;;-144.67;100.00
47522;BME280;32291;52.010;4.446;2023-04-30T04:47:10;79895.78;;;-144.67;100.00
47522;BME280;32291;52.010;4.446;2023-04-30T04:48:13;79895.78;;;-144.67;100.00
47522;BME280;32291;52.010;4.446;2023-04-30T04:49:15;79893.66;;;-144.67;100.00
47522;BME280;32291;52.010;4.446;2023-04-30T04:50:17;79887.22;;;-144.67;100.00
47522;BME280;32291;52.010;4.446;2023-04-30T04:51:19;79885.06;;;-144.67;100.00
47522;BME280;32291;52.010;4.446;2023-04-30T04:52:21;79885.06;;;-144.67;100.00
47522;BME280;32291;52.010;4.446;2023-04-30T04:53:23;79880.78;;;-144.67;100.00
47522;BME280;32291;52.010;4.446;2023-04-30T04:54:25;79880.78;;;-144.67;100.00
47522;BME280;32291;52.010;4.446;2023-04-30T04:55:27;79863.66;;;-144.67;100.00
47522;BME280;32291;52.010;4.446;2023-04-30T04:56:29;79861.50;;;-144.67;100.00
47522;BME280;32291;52.010;4.446;2023-04-30T04:57:31;79863.66;;;-144.67;100.00
47522;BME280;32291;52.010;4.446;2023-04-30T04:58:33;79859.38;;;-144.67;100.00
47522;BME280;32291;52.010;4.446;2023-04-30T04:59:35;79857.22;;;-144.67;100.00
47522;BME280;32291;52.010;4.446;2023-04-30T05:00:38;79842.22;;;-144.67;100.00
47522;BME280;32291;52.010;4.446;2023-04-30T05:01:40;79842.22;;;-144.67;100.00
47522;BME280;32291;52.010;4.446;2023-04-30T05:02:41;79837.94;;;-144.67;100.00
47522;BME280;32291;52.010;4.446;2023-04-30T05:03:43;79829.38;;;-144.67;100.00
47522;BME280;32291;52.010;4.446;2023-04-30T05:04:45;79825.09;;;-144.67;100.00
47522;BME280;32291;52.010;4.446;2023-04-30T05:05:47;79820.81;;;-144.67;100.00
47522;BME280;32291;52.010;4.446;2023-04-30T05:06:49;79812.25;;;-144.67;100.00
47522;BME280;32291;52.010;4.446;2023-04-30T05:07:50;79803.69;;;-144.67;100.00
47522;BME280;32291;52.010;4.446;2023-04-30T05:08:55;79801.53;;;-144.67;100.00
47522;BME280;32291;52.010;4.446;2023-04-30T05:09:57;79799.41;;;-144.67;100.00
47522;BME280;32291;52.010;4.446;2023-04-30T05:10:59;79792.97;;;-144.67;100.00
47522;BME280;32291;52.010;4.446;2023-04-30T05:12:00;79780.13;;;-144.67;100.00
47522;BME280;32291;52.010;4.446;2023-04-30T05:13:02;79773.69;;;-144.67;100.00
47522;BME280;32291;52.010;4.446;2023-04-30T05:14:04;79769.41;;;-144.67;100.00
47522;BME280;32291;52.010;4.446;2023-04-30T05:15:07;79769.41;;;-144.67;100.00
47522;BME280;32291;52.010;4.446;2023-04-30T05:16:08;79765.13;;;-144.67;100.00
47522;BME280;32291;52.010;4.446;2023-04-30T05:17:10;79760.84;;;-144.67;100.00
47522;BME280;32291;52.010;4.446;2023-04-30T05:18:11;79760.84;;;-144.67;100.00
47522;BME280;32291;52.010;4.446;2023-04-30T05:19:13;79758.69;;;-144.67;100.00
47522;BME280;32291;52.010;4.446;2023-04-30T05:20:15;79754.41;;;-144.67;100.00
47522;BME280;32291;52.010;4.446;2023-04-30T05:21:16;79754.41;;;-144.67;100.00
47522;BME280;32291;52.010;4.446;2023-04-30T05:22:18;79748.00;;;-144.67;100.00
47522;BME280;32291;52.010;4.446;2023-04-30T05:23:19;79739.41;;;-144.67;100.00
47522;BME280;32291;52.010;4.446;2023-04-30T05:24:21;79739.41;;;-144.67;100.00
47522;BME280;32291;52.010;4.446;2023-04-30T05:25:26;79733.00;;;-144.67;100.00
47522;BME280;32291;52.010;4.446;2023-04-30T05:26:28;79726.56;;;-144.67;100.00
47522;BME280;32291;52.010;4.446;2023-04-30T05:27:30;79728.72;;;-144.67;100.00
47522;BME280;32291;52.010;4.446;2023-04-30T05:28:32;79724.44;;;-144.67;100.00
47522;BME280;32291;52.010;4.446;2023-04-30T05:29:34;79713.72;;;-144.67;100.00
47522;BME280;32291;52.010;4.446;2023-04-30T05:30:36;79720.16;;;-144.67;100.00
47522;BME280;32291;52.010;4.446;2023-04-30T05:31:38;79713.72;;;-144.67;100.00
47522;BME280;32291;52.010;4.446;2023-04-30T05:32:40;79711.56;;;-144.67;100.00
47522;BME280;32291;52.010;4.446;2023-04-30T05:33:42;79709.44;;;-144.67;100.00
47522;BME280;32291;52.010;4.446;2023-04-30T05:34:43;79707.28;;;-144.67;100.00